Kezdőlap
METAR-TAF:

METAR-TAF

Repülőterek :

Sullivan County International Airport

Monticello, New York, Amerikai Egyesült Államok

földrajzi szélesség: 41-42N, földrajzi hosszúság: 074-48W, magasság: 428 m

Jelenlegi meteorológiai megfigyelések

A jelentés 37 perccel ezelõtt készült, 13:56 UTC
Kelet-délkeleti szél 11 kt
Hőmérséklet 8°C
Páratartalom 71%
Légköri nyomás 1019 hPa
Látótávolság: 16.1 km
Borult 2200 lábon

METAR: KMSV 181356Z AUTO 12011KT 10SM OVC022 08/03 A3010 RMK AO2 SLP197 T00780028

Idő: 10:33 (14:33 UTC)


TAF: hiányzik

Meteorológiai megfigyelések és előrejelzések több, mint 4000 repülőtéren (METAR és TAF jelentéseket).

A térképen piros és sárga pontok jelzik az elérhető meteorológiai állomásokat.

Mozgassa az egeret a pont fölött, hogy megjelenjen az állomás neve.

Azután kattintson az időjárási megfigyelések és előrejelzések megtekintéséhez.

A térkép megváltoztatása: kattintson a fekete keresztel jelölt zöld gombra ráközelítéshez, a vonallal jelölt zöld gombra távolításhoz, vagy a zöld nyilakra a szomszédos térképek eléréséhez.


METAR-TAF: